sensor_id;sensor_type;location;lat;lon;timestamp;temperature;humidity
6102;DHT22;3081;50.584;7.032;2023-06-10T00:00:41;20.20;83.00
6102;DHT22;3081;50.584;7.032;2023-06-10T00:03:08;20.10;83.10
6102;DHT22;3081;50.584;7.032;2023-06-10T00:05:36;20.10;83.40
6102;DHT22;3081;50.584;7.032;2023-06-10T00:08:05;20.10;83.50
6102;DHT22;3081;50.584;7.032;2023-06-10T00:10:33;20.00;83.70
6102;DHT22;3081;50.584;7.032;2023-06-10T00:13:00;20.00;84.20
6102;DHT22;3081;50.584;7.032;2023-06-10T00:15:28;19.90;84.60
6102;DHT22;3081;50.584;7.032;2023-06-10T00:17:55;19.80;85.10
6102;DHT22;3081;50.584;7.032;2023-06-10T00:20:22;19.80;85.70
6102;DHT22;3081;50.584;7.032;2023-06-10T00:22:52;19.70;87.00
6102;DHT22;3081;50.584;7.032;2023-06-10T00:25:19;19.60;86.70
6102;DHT22;3081;50.584;7.032;2023-06-10T00:27:46;19.60;87.10
6102;DHT22;3081;50.584;7.032;2023-06-10T00:30:13;19.50;87.10
6102;DHT22;3081;50.584;7.032;2023-06-10T00:32:40;19.60;87.50
6102;DHT22;3081;50.584;7.032;2023-06-10T00:35:07;19.50;87.80
6102;DHT22;3081;50.584;7.032;2023-06-10T00:37:34;19.50;88.40
6102;DHT22;3081;50.584;7.032;2023-06-10T00:40:03;19.50;88.60
6102;DHT22;3081;50.584;7.032;2023-06-10T00:42:30;19.50;88.70
6102;DHT22;3081;50.584;7.032;2023-06-10T00:44:57;19.50;88.80
6102;DHT22;3081;50.584;7.032;2023-06-10T00:47:25;19.50;89.20
6102;DHT22;3081;50.584;7.032;2023-06-10T00:49:53;19.50;89.20
6102;DHT22;3081;50.584;7.032;2023-06-10T00:52:22;19.50;89.20
6102;DHT22;3081;50.584;7.032;2023-06-10T00:54:51;19.50;89.70
6102;DHT22;3081;50.584;7.032;2023-06-10T00:57:19;19.50;89.80
6102;DHT22;3081;50.584;7.032;2023-06-10T00:59:48;19.50;90.00
6102;DHT22;3081;50.584;7.032;2023-06-10T01:02:16;19.50;90.10
6102;DHT22;3081;50.584;7.032;2023-06-10T01:04:43;19.50;90.20
6102;DHT22;3081;50.584;7.032;2023-06-10T01:07:17;19.50;90.50
6102;DHT22;3081;50.584;7.032;2023-06-10T01:09:49;19.50;90.30
6102;DHT22;3081;50.584;7.032;2023-06-10T01:12:27;19.50;90.40
6102;DHT22;3081;50.584;7.032;2023-06-10T01:14:55;19.50;90.50
6102;DHT22;3081;50.584;7.032;2023-06-10T01:17:24;19.50;90.60
6102;DHT22;3081;50.584;7.032;2023-06-10T01:19:56;19.50;90.70
6102;DHT22;3081;50.584;7.032;2023-06-10T01:22:25;19.50;90.80
6102;DHT22;3081;50.584;7.032;2023-06-10T01:24:54;19.50;90.80
6102;DHT22;3081;50.584;7.032;2023-06-10T01:27:27;19.50;91.00
6102;DHT22;3081;50.584;7.032;2023-06-10T01:29:59;19.50;90.90
6102;DHT22;3081;50.584;7.032;2023-06-10T01:32:33;19.50;91.00
6102;DHT22;3081;50.584;7.032;2023-06-10T01:35:02;19.50;91.20
6102;DHT22;3081;50.584;7.032;2023-06-10T01:37:31;19.50;91.40
6102;DHT22;3081;50.584;7.032;2023-06-10T01:39:59;19.50;91.40
6102;DHT22;3081;50.584;7.032;2023-06-10T01:42:27;19.50;91.40
6102;DHT22;3081;50.584;7.032;2023-06-10T01:44:54;19.50;91.60
6102;DHT22;3081;50.584;7.032;2023-06-10T01:47:21;19.50;91.60
6102;DHT22;3081;50.584;7.032;2023-06-10T01:49:48;19.40;91.60
6102;DHT22;3081;50.584;7.032;2023-06-10T01:52:15;19.40;91.90
6102;DHT22;3081;50.584;7.032;2023-06-10T01:54:44;19.40;92.00
6102;DHT22;3081;50.584;7.032;2023-06-10T01:57:10;19.40;92.20
6102;DHT22;3081;50.584;7.032;2023-06-10T01:59:37;19.40;92.50
6102;DHT22;3081;50.584;7.032;2023-06-10T02:02:05;19.30;92.60
6102;DHT22;3081;50.584;7.032;2023-06-10T02:04:32;19.30;92.70
6102;DHT22;3081;50.584;7.032;2023-06-10T02:06:59;19.20;92.90
6102;DHT22;3081;50.584;7.032;2023-06-10T02:09:29;19.20;93.10
6102;DHT22;3081;50.584;7.032;2023-06-10T02:11:58;19.20;93.30
6102;DHT22;3081;50.584;7.032;2023-06-10T02:14:25;19.10;93.40
6102;DHT22;3081;50.584;7.032;2023-06-10T02:16:51;19.00;93.60
6102;DHT22;3081;50.584;7.032;2023-06-10T02:19:22;19.00;93.90
6102;DHT22;3081;50.584;7.032;2023-06-10T02:21:49;18.90;94.00
6102;DHT22;3081;50.584;7.032;2023-06-10T02:24:16;18.90;94.30
6102;DHT22;3081;50.584;7.032;2023-06-10T02:26:43;18.90;94.40
6102;DHT22;3081;50.584;7.032;2023-06-10T02:29:12;18.80;94.60
6102;DHT22;3081;50.584;7.032;2023-06-10T02:31:38;18.80;94.90
6102;DHT22;3081;50.584;7.032;2023-06-10T02:34:06;18.70;95.30
6102;DHT22;3081;50.584;7.032;2023-06-10T02:36:33;18.60;95.50
6102;DHT22;3081;50.584;7.032;2023-06-10T02:39:01;18.50;95.90
6102;DHT22;3081;50.584;7.032;2023-06-10T02:41:28;18.40;96.30
6102;DHT22;3081;50.584;7.032;2023-06-10T02:43:55;18.40;96.60
6102;DHT22;3081;50.584;7.032;2023-06-10T02:46:23;18.30;96.70
6102;DHT22;3081;50.584;7.032;2023-06-10T02:48:50;18.30;97.10
6102;DHT22;3081;50.584;7.032;2023-06-10T02:51:18;18.20;97.10
6102;DHT22;3081;50.584;7.032;2023-06-10T02:53:46;18.20;97.20
6102;DHT22;3081;50.584;7.032;2023-06-10T02:56:15;18.20;97.40
6102;DHT22;3081;50.584;7.032;2023-06-10T02:58:42;18.20;97.70
6102;DHT22;3081;50.584;7.032;2023-06-10T03:01:09;18.20;97.90
6102;DHT22;3081;50.584;7.032;2023-06-10T03:03:37;18.20;98.00
6102;DHT22;3081;50.584;7.032;2023-06-10T03:06:06;18.20;98.20
6102;DHT22;3081;50.584;7.032;2023-06-10T03:08:34;18.10;98.40
6102;DHT22;3081;50.584;7.032;2023-06-10T03:11:00;18.00;98.70
6102;DHT22;3081;50.584;7.032;2023-06-10T03:13:27;18.00;98.90
6102;DHT22;3081;50.584;7.032;2023-06-10T03:15:54;17.90;99.00
6102;DHT22;3081;50.584;7.032;2023-06-10T03:18:25;17.80;99.30
6102;DHT22;3081;50.584;7.032;2023-06-10T03:20:53;17.80;99.40
6102;DHT22;3081;50.584;7.032;2023-06-10T03:23:20;17.80;99.60
6102;DHT22;3081;50.584;7.032;2023-06-10T03:25:48;17.70;99.70
6102;DHT22;3081;50.584;7.032;2023-06-10T03:28:15;17.70;99.90
6102;DHT22;3081;50.584;7.032;2023-06-10T03:30:42;17.60;99.90
6102;DHT22;3081;50.584;7.032;2023-06-10T03:33:09;17.50;99.90
6102;DHT22;3081;50.584;7.032;2023-06-10T03:35:36;17.50;99.90
6102;DHT22;3081;50.584;7.032;2023-06-10T03:38:04;17.40;99.90
6102;DHT22;3081;50.584;7.032;2023-06-10T03:40:31;17.40;99.90
6102;DHT22;3081;50.584;7.032;2023-06-10T03:42:58;17.30;99.90
6102;DHT22;3081;50.584;7.032;2023-06-10T03:45:26;17.30;99.90
6102;DHT22;3081;50.584;7.032;2023-06-10T03:47:53;17.30;99.90
6102;DHT22;3081;50.584;7.032;2023-06-10T03:50:21;17.30;99.90
6102;DHT22;3081;50.584;7.032;2023-06-10T03:52:49;17.40;99.90
6102;DHT22;3081;50.584;7.032;2023-06-10T03:55:17;17.50;99.90
6102;DHT22;3081;50.584;7.032;2023-06-10T03:57:47;17.50;99.90
6102;DHT22;3081;50.584;7.032;2023-06-10T04:00:15;17.60;99.90
6102;DHT22;3081;50.584;7.032;2023-06-10T04:02:43;17.60;99.90
6102;DHT22;3081;50.584;7.032;2023-06-10T04:05:14;17.70;99.90
6102;DHT22;3081;50.584;7.032;2023-06-10T04:07:42;17.80;99.90
6102;DHT22;3081;50.584;7.032;2023-06-10T04:10:10;17.90;99.90
6102;DHT22;3081;50.584;7.032;2023-06-10T04:12:38;18.00;99.90
6102;DHT22;3081;50.584;7.032;2023-06-10T04:15:06;18.10;99.90
6102;DHT22;3081;50.584;7.032;2023-06-10T04:17:33;18.20;99.90
6102;DHT22;3081;50.584;7.032;2023-06-10T04:20:00;18.30;99.90
6102;DHT22;3081;50.584;7.032;2023-06-10T04:22:29;18.40;99.90
6102;DHT22;3081;50.584;7.032;2023-06-10T04:24:55;18.50;99.90
6102;DHT22;3081;50.584;7.032;2023-06-10T04:27:22;18.60;99.90
6102;DHT22;3081;50.584;7.032;2023-06-10T04:29:50;18.70;99.90
6102;DHT22;3081;50.584;7.032;2023-06-10T04:32:18;18.70;99.90
6102;DHT22;3081;50.584;7.032;2023-06-10T04:34:44;18.80;99.90
6102;DHT22;3081;50.584;7.032;2023-06-10T04:37:11;18.80;99.90
6102;DHT22;3081;50.584;7.032;2023-06-10T04:39:38;19.00;99.90
6102;DHT22;3081;50.584;7.032;2023-06-10T04:42:06;19.10;99.90
6102;DHT22;3081;50.584;7.032;2023-06-10T04:44:33;19.20;99.90
6102;DHT22;3081;50.584;7.032;2023-06-10T04:47:01;19.40;99.90
6102;DHT22;3081;50.584;7.032;2023-06-10T04:49:28;19.60;99.90
6102;DHT22;3081;50.584;7.032;2023-06-10T04:51:57;19.80;99.90
6102;DHT22;3081;50.584;7.032;2023-06-10T04:54:25;20.20;99.90
6102;DHT22;3081;50.584;7.032;2023-06-10T04:56:52;20.60;99.90
6102;DHT22;3081;50.584;7.032;2023-06-10T04:59:20;20.80;99.90
6102;DHT22;3081;50.584;7.032;2023-06-10T05:01:46;21.00;99.10
6102;DHT22;3081;50.584;7.032;2023-06-10T05:04:15;21.10;98.60
6102;DHT22;3081;50.584;7.032;2023-06-10T05:06:42;21.10;96.60
6102;DHT22;3081;50.584;7.032;2023-06-10T05:09:09;21.10;96.30
6102;DHT22;3081;50.584;7.032;2023-06-10T05:11:36;21.00;95.60
6102;DHT22;3081;50.584;7.032;2023-06-10T05:14:03;21.00;95.00
6102;DHT22;3081;50.584;7.032;2023-06-10T05:16:30;21.00;94.80
6102;DHT22;3081;50.584;7.032;2023-06-10T05:18:57;21.00;95.20
6102;DHT22;3081;50.584;7.032;2023-06-10T05:21:25;21.10;95.50
6102;DHT22;3081;50.584;7.032;2023-06-10T05:23:52;21.20;95.10
6102;DHT22;3081;50.584;7.032;2023-06-10T05:26:20;21.30;94.80
6102;DHT22;3081;50.584;7.032;2023-06-10T05:28:47;21.50;95.00
6102;DHT22;3081;50.584;7.032;2023-06-10T05:31:14;21.60;95.70
6102;DHT22;3081;50.584;7.032;2023-06-10T05:33:41;21.60;96.10
6102;DHT22;3081;50.584;7.032;2023-06-10T05:36:08;21.70;96.00
6102;DHT22;3081;50.584;7.032;2023-06-10T05:38:36;21.70;95.60
6102;DHT22;3081;50.584;7.032;2023-06-10T05:41:03;21.80;95.40
6102;DHT22;3081;50.584;7.032;2023-06-10T05:43:30;21.80;95.20
6102;DHT22;3081;50.584;7.032;2023-06-10T05:45:56;21.80;94.70
6102;DHT22;3081;50.584;7.032;2023-06-10T05:48:23;21.80;94.50
6102;DHT22;3081;50.584;7.032;2023-06-10T05:50:50;21.80;94.50
6102;DHT22;3081;50.584;7.032;2023-06-10T05:53:17;21.90;94.20
6102;DHT22;3081;50.584;7.032;2023-06-10T05:55:46;22.00;93.90
6102;DHT22;3081;50.584;7.032;2023-06-10T05:58:13;22.10;93.70
6102;DHT22;3081;50.584;7.032;2023-06-10T06:00:41;22.10;93.40
6102;DHT22;3081;50.584;7.032;2023-06-10T06:03:08;22.20;93.10
6102;DHT22;3081;50.584;7.032;2023-06-10T06:05:36;22.30;93.00
6102;DHT22;3081;50.584;7.032;2023-06-10T06:08:04;22.30;93.00
6102;DHT22;3081;50.584;7.032;2023-06-10T06:10:31;22.40;93.10
6102;DHT22;3081;50.584;7.032;2023-06-10T06:13:00;22.50;93.00
6102;DHT22;3081;50.584;7.032;2023-06-10T06:15:27;22.60;93.10
6102;DHT22;3081;50.584;7.032;2023-06-10T06:17:54;22.60;92.70
6102;DHT22;3081;50.584;7.032;2023-06-10T06:20:22;22.60;92.60
6102;DHT22;3081;50.584;7.032;2023-06-10T06:22:49;22.70;92.50
6102;DHT22;3081;50.584;7.032;2023-06-10T06:25:16;22.60;92.30
6102;DHT22;3081;50.584;7.032;2023-06-10T06:27:43;22.60;92.40
6102;DHT22;3081;50.584;7.032;2023-06-10T06:30:11;22.60;92.10
6102;DHT22;3081;50.584;7.032;2023-06-10T06:32:38;22.70;92.20
6102;DHT22;3081;50.584;7.032;2023-06-10T06:35:06;22.80;92.10
6102;DHT22;3081;50.584;7.032;2023-06-10T06:37:33;22.80;91.60
6102;DHT22;3081;50.584;7.032;2023-06-10T06:40:01;22.90;91.80
6102;DHT22;3081;50.584;7.032;2023-06-10T06:42:29;23.00;91.10
6102;DHT22;3081;50.584;7.032;2023-06-10T06:44:55;22.90;90.30
6102;DHT22;3081;50.584;7.032;2023-06-10T06:47:24;23.00;90.10
6102;DHT22;3081;50.584;7.032;2023-06-10T06:49:52;23.20;89.30
6102;DHT22;3081;50.584;7.032;2023-06-10T06:52:19;23.20;89.30
6102;DHT22;3081;50.584;7.032;2023-06-10T06:54:45;23.20;88.10
6102;DHT22;3081;50.584;7.032;2023-06-10T06:57:12;23.20;87.80
6102;DHT22;3081;50.584;7.032;2023-06-10T06:59:39;23.30;86.70
6102;DHT22;3081;50.584;7.032;2023-06-10T07:02:06;23.30;87.00
6102;DHT22;3081;50.584;7.032;2023-06-10T07:04:35;23.50;86.00
6102;DHT22;3081;50.584;7.032;2023-06-10T07:07:02;23.50;85.90
6102;DHT22;3081;50.584;7.032;2023-06-10T07:09:29;23.60;85.50
6102;DHT22;3081;50.584;7.032;2023-06-10T07:11:56;23.70;84.90
6102;DHT22;3081;50.584;7.032;2023-06-10T07:14:23;23.80;84.60
6102;DHT22;3081;50.584;7.032;2023-06-10T07:16:50;23.90;83.60
6102;DHT22;3081;50.584;7.032;2023-06-10T07:19:16;24.00;83.10
6102;DHT22;3081;50.584;7.032;2023-06-10T07:21:45;24.10;83.20
6102;DHT22;3081;50.584;7.032;2023-06-10T07:24:12;24.10;83.10
6102;DHT22;3081;50.584;7.032;2023-06-10T07:26:39;24.20;83.30
6102;DHT22;3081;50.584;7.032;2023-06-10T07:29:05;24.30;83.10
6102;DHT22;3081;50.584;7.032;2023-06-10T07:31:32;24.30;83.20
6102;DHT22;3081;50.584;7.032;2023-06-10T07:33:59;24.40;83.10
6102;DHT22;3081;50.584;7.032;2023-06-10T07:36:26;24.40;83.20
6102;DHT22;3081;50.584;7.032;2023-06-10T07:38:56;24.50;82.90
6102;DHT22;3081;50.584;7.032;2023-06-10T07:41:23;24.60;82.80
6102;DHT22;3081;50.584;7.032;2023-06-10T07:43:51;24.70;82.50
6102;DHT22;3081;50.584;7.032;2023-06-10T07:46:20;24.70;81.40
6102;DHT22;3081;50.584;7.032;2023-06-10T07:48:47;24.70;81.40
6102;DHT22;3081;50.584;7.032;2023-06-10T07:51:15;24.80;81.10
6102;DHT22;3081;50.584;7.032;2023-06-10T07:53:43;24.90;82.00
6102;DHT22;3081;50.584;7.032;2023-06-10T07:56:11;25.00;80.70
6102;DHT22;3081;50.584;7.032;2023-06-10T07:58:38;25.10;80.60
6102;DHT22;3081;50.584;7.032;2023-06-10T08:01:05;25.20;79.80
6102;DHT22;3081;50.584;7.032;2023-06-10T08:03:33;25.20;78.90
6102;DHT22;3081;50.584;7.032;2023-06-10T08:06:00;25.30;78.80
6102;DHT22;3081;50.584;7.032;2023-06-10T08:08:26;25.40;78.90
6102;DHT22;3081;50.584;7.032;2023-06-10T08:10:53;25.50;78.00
6102;DHT22;3081;50.584;7.032;2023-06-10T08:13:22;25.50;78.10
6102;DHT22;3081;50.584;7.032;2023-06-10T08:15:49;25.60;77.60
6102;DHT22;3081;50.584;7.032;2023-06-10T08:18:16;25.70;77.10
6102;DHT22;3081;50.584;7.032;2023-06-10T08:20:43;25.70;78.30
6102;DHT22;3081;50.584;7.032;2023-06-10T08:23:10;25.70;78.10
6102;DHT22;3081;50.584;7.032;2023-06-10T08:25:37;25.70;77.70
6102;DHT22;3081;50.584;7.032;2023-06-10T08:28:04;25.80;77.70
6102;DHT22;3081;50.584;7.032;2023-06-10T08:30:32;26.00;77.30
6102;DHT22;3081;50.584;7.032;2023-06-10T08:32:59;26.10;76.60
6102;DHT22;3081;50.584;7.032;2023-06-10T08:35:26;26.30;76.80
6102;DHT22;3081;50.584;7.032;2023-06-10T08:37:53;26.30;76.60
6102;DHT22;3081;50.584;7.032;2023-06-10T08:40:20;26.40;76.70
6102;DHT22;3081;50.584;7.032;2023-06-10T08:42:53;26.50;76.20
6102;DHT22;3081;50.584;7.032;2023-06-10T08:45:24;26.60;76.00
6102;DHT22;3081;50.584;7.032;2023-06-10T08:47:56;26.70;75.00
6102;DHT22;3081;50.584;7.032;2023-06-10T08:50:24;26.70;74.60
6102;DHT22;3081;50.584;7.032;2023-06-10T08:52:54;26.70;75.00
6102;DHT22;3081;50.584;7.032;2023-06-10T08:55:27;26.80;75.50
6102;DHT22;3081;50.584;7.032;2023-06-10T08:57:54;27.00;75.30
6102;DHT22;3081;50.584;7.032;2023-06-10T09:00:21;27.10;75.30
6102;DHT22;3081;50.584;7.032;2023-06-10T09:02:49;27.30;73.90
6102;DHT22;3081;50.584;7.032;2023-06-10T09:05:18;27.40;73.10
6102;DHT22;3081;50.584;7.032;2023-06-10T09:07:46;27.40;72.50
6102;DHT22;3081;50.584;7.032;2023-06-10T09:10:14;27.40;72.50
6102;DHT22;3081;50.584;7.032;2023-06-10T09:12:41;27.40;72.60
6102;DHT22;3081;50.584;7.032;2023-06-10T09:15:09;27.40;72.90
6102;DHT22;3081;50.584;7.032;2023-06-10T09:17:37;27.50;73.00
6102;DHT22;3081;50.584;7.032;2023-06-10T09:20:07;27.70;72.30
6102;DHT22;3081;50.584;7.032;2023-06-10T09:22:35;27.90;72.20
6102;DHT22;3081;50.584;7.032;2023-06-10T09:25:03;28.00;72.40
6102;DHT22;3081;50.584;7.032;2023-06-10T09:27:31;28.20;72.00
6102;DHT22;3081;50.584;7.032;2023-06-10T09:29:58;28.30;72.40
6102;DHT22;3081;50.584;7.032;2023-06-10T09:32:26;28.50;71.00
6102;DHT22;3081;50.584;7.032;2023-06-10T09:34:54;28.50;70.40
6102;DHT22;3081;50.584;7.032;2023-06-10T09:37:21;28.60;70.80
6102;DHT22;3081;50.584;7.032;2023-06-10T09:40:04;29.10;70.00
6102;DHT22;3081;50.584;7.032;2023-06-10T09:42:33;29.60;69.20
6102;DHT22;3081;50.584;7.032;2023-06-10T09:45:01;30.10;67.80
6102;DHT22;3081;50.584;7.032;2023-06-10T09:47:28;30.70;65.70
6102;DHT22;3081;50.584;7.032;2023-06-10T09:49:55;31.50;63.50
6102;DHT22;3081;50.584;7.032;2023-06-10T09:52:22;32.50;62.10
6102;DHT22;3081;50.584;7.032;2023-06-10T09:54:50;33.30;59.50
6102;DHT22;3081;50.584;7.032;2023-06-10T09:57:19;34.00;57.90
6102;DHT22;3081;50.584;7.032;2023-06-10T09:59:46;34.50;56.20
6102;DHT22;3081;50.584;7.032;2023-06-10T10:02:14;34.90;54.90
6102;DHT22;3081;50.584;7.032;2023-06-10T10:04:42;35.20;53.80
6102;DHT22;3081;50.584;7.032;2023-06-10T10:07:09;35.60;52.80
6102;DHT22;3081;50.584;7.032;2023-06-10T10:09:36;35.90;51.60
6102;DHT22;3081;50.584;7.032;2023-06-10T10:12:08;36.10;51.60
6102;DHT22;3081;50.584;7.032;2023-06-10T10:14:37;36.30;51.00
6102;DHT22;3081;50.584;7.032;2023-06-10T10:17:08;36.10;50.00
6102;DHT22;3081;50.584;7.032;2023-06-10T10:19:42;36.10;49.40
6102;DHT22;3081;50.584;7.032;2023-06-10T10:22:18;36.20;48.10
6102;DHT22;3081;50.584;7.032;2023-06-10T10:24:49;36.20;47.50
6102;DHT22;3081;50.584;7.032;2023-06-10T10:27:18;36.30;47.80
6102;DHT22;3081;50.584;7.032;2023-06-10T10:29:52;36.40;48.10
6102;DHT22;3081;50.584;7.032;2023-06-10T10:32:24;36.80;46.70
6102;DHT22;3081;50.584;7.032;2023-06-10T10:35:01;37.00;46.20
6102;DHT22;3081;50.584;7.032;2023-06-10T10:37:31;37.00;46.00
6102;DHT22;3081;50.584;7.032;2023-06-10T10:39:59;36.90;46.30
6102;DHT22;3081;50.584;7.032;2023-06-10T10:42:27;36.80;46.60
6102;DHT22;3081;50.584;7.032;2023-06-10T10:44:56;37.00;46.50
6102;DHT22;3081;50.584;7.032;2023-06-10T10:47:27;37.40;45.20
6102;DHT22;3081;50.584;7.032;2023-06-10T10:49:55;37.70;45.10
6102;DHT22;3081;50.584;7.032;2023-06-10T10:52:25;37.60;44.80
6102;DHT22;3081;50.584;7.032;2023-06-10T10:54:53;37.30;44.80
6102;DHT22;3081;50.584;7.032;2023-06-10T10:57:21;37.20;45.30
6102;DHT22;3081;50.584;7.032;2023-06-10T10:59:54;37.30;45.50
6102;DHT22;3081;50.584;7.032;2023-06-10T11:02:39;37.70;45.50
6102;DHT22;3081;50.584;7.032;2023-06-10T11:05:09;38.30;44.60
6102;DHT22;3081;50.584;7.032;2023-06-10T11:07:37;38.60;43.20
6102;DHT22;3081;50.584;7.032;2023-06-10T11:10:07;38.50;42.70
6102;DHT22;3081;50.584;7.032;2023-06-10T11:12:51;37.90;44.20
6102;DHT22;3081;50.584;7.032;2023-06-10T11:15:24;37.80;44.00
6102;DHT22;3081;50.584;7.032;2023-06-10T11:18:25;38.30;43.10
6102;DHT22;3081;50.584;7.032;2023-06-10T11:20:55;38.50;43.50
6102;DHT22;3081;50.584;7.032;2023-06-10T11:23:32;38.40;42.30
6102;DHT22;3081;50.584;7.032;2023-06-10T11:26:10;38.80;41.30
6102;DHT22;3081;50.584;7.032;2023-06-10T11:28:37;39.20;41.60
6102;DHT22;3081;50.584;7.032;2023-06-10T11:31:04;39.30;41.60
6102;DHT22;3081;50.584;7.032;2023-06-10T11:33:33;38.70;41.60
6102;DHT22;3081;50.584;7.032;2023-06-10T11:36:00;38.10;42.10
6102;DHT22;3081;50.584;7.032;2023-06-10T11:38:28;38.20;42.50
6102;DHT22;3081;50.584;7.032;2023-06-10T11:40:56;38.30;41.70
6102;DHT22;3081;50.584;7.032;2023-06-10T11:43:23;38.10;42.70
6102;DHT22;3081;50.584;7.032;2023-06-10T11:45:54;38.30;42.10
6102;DHT22;3081;50.584;7.032;2023-06-10T11:48:22;39.00;41.30
6102;DHT22;3081;50.584;7.032;2023-06-10T11:50:52;39.90;40.10
6102;DHT22;3081;50.584;7.032;2023-06-10T11:53:19;40.20;40.00
6102;DHT22;3081;50.584;7.032;2023-06-10T11:55:48;40.70;39.00
6102;DHT22;3081;50.584;7.032;2023-06-10T11:58:15;40.80;39.40
6102;DHT22;3081;50.584;7.032;2023-06-10T12:00:46;41.10;38.60
6102;DHT22;3081;50.584;7.032;2023-06-10T12:03:13;41.80;37.60
6102;DHT22;3081;50.584;7.032;2023-06-10T12:05:40;41.50;37.90
6102;DHT22;3081;50.584;7.032;2023-06-10T12:08:21;41.00;38.20
6102;DHT22;3081;50.584;7.032;2023-06-10T12:10:48;40.10;39.10
6102;DHT22;3081;50.584;7.032;2023-06-10T12:13:15;39.10;39.90
6102;DHT22;3081;50.584;7.032;2023-06-10T12:15:43;38.90;40.20
6102;DHT22;3081;50.584;7.032;2023-06-10T12:18:16;38.50;39.80
6102;DHT22;3081;50.584;7.032;2023-06-10T12:20:43;37.60;41.00
6102;DHT22;3081;50.584;7.032;2023-06-10T12:23:11;37.50;41.90
6102;DHT22;3081;50.584;7.032;2023-06-10T12:25:39;38.10;41.20
6102;DHT22;3081;50.584;7.032;2023-06-10T12:28:15;39.00;39.90
6102;DHT22;3081;50.584;7.032;2023-06-10T12:30:43;40.00;38.80
6102;DHT22;3081;50.584;7.032;2023-06-10T12:33:16;40.70;37.40
6102;DHT22;3081;50.584;7.032;2023-06-10T12:35:47;41.40;37.30
6102;DHT22;3081;50.584;7.032;2023-06-10T12:38:18;41.80;35.70
6102;DHT22;3081;50.584;7.032;2023-06-10T12:40:48;42.00;35.40
6102;DHT22;3081;50.584;7.032;2023-06-10T12:43:19;42.30;35.40
6102;DHT22;3081;50.584;7.032;2023-06-10T12:45:47;42.90;35.40
6102;DHT22;3081;50.584;7.032;2023-06-10T12:48:18;42.70;34.80
6102;DHT22;3081;50.584;7.032;2023-06-10T12:50:51;41.90;34.80
6102;DHT22;3081;50.584;7.032;2023-06-10T12:53:19;40.80;35.30
6102;DHT22;3081;50.584;7.032;2023-06-10T12:55:48;40.30;36.10
6102;DHT22;3081;50.584;7.032;2023-06-10T12:58:15;40.50;36.00
6102;DHT22;3081;50.584;7.032;2023-06-10T13:00:42;39.90;36.50
6102;DHT22;3081;50.584;7.032;2023-06-10T13:03:10;40.10;36.50
6102;DHT22;3081;50.584;7.032;2023-06-10T13:05:37;40.90;36.40
6102;DHT22;3081;50.584;7.032;2023-06-10T13:08:04;42.00;36.70
6102;DHT22;3081;50.584;7.032;2023-06-10T13:10:31;42.10;36.30
6102;DHT22;3081;50.584;7.032;2023-06-10T13:13:00;42.20;35.70
6102;DHT22;3081;50.584;7.032;2023-06-10T13:15:27;42.40;34.60
6102;DHT22;3081;50.584;7.032;2023-06-10T13:17:54;43.40;34.60
6102;DHT22;3081;50.584;7.032;2023-06-10T13:20:21;44.40;34.20
6102;DHT22;3081;50.584;7.032;2023-06-10T13:22:48;45.10;33.70
6102;DHT22;3081;50.584;7.032;2023-06-10T13:25:15;44.90;33.70
6102;DHT22;3081;50.584;7.032;2023-06-10T13:27:42;44.90;33.80
6102;DHT22;3081;50.584;7.032;2023-06-10T13:30:11;45.10;33.30
6102;DHT22;3081;50.584;7.032;2023-06-10T13:32:38;45.30;33.60
6102;DHT22;3081;50.584;7.032;2023-06-10T13:35:06;45.70;32.80
6102;DHT22;3081;50.584;7.032;2023-06-10T13:37:33;46.20;32.50
6102;DHT22;3081;50.584;7.032;2023-06-10T13:40:00;46.90;31.40
6102;DHT22;3081;50.584;7.032;2023-06-10T13:42:27;47.20;30.80
6102;DHT22;3081;50.584;7.032;2023-06-10T13:44:54;47.20;31.10
6102;DHT22;3081;50.584;7.032;2023-06-10T13:47:23;47.40;31.60
6102;DHT22;3081;50.584;7.032;2023-06-10T13:49:50;47.70;31.60
6102;DHT22;3081;50.584;7.032;2023-06-10T13:52:17;48.10;30.90
6102;DHT22;3081;50.584;7.032;2023-06-10T13:54:44;48.40;30.30
6102;DHT22;3081;50.584;7.032;2023-06-10T13:57:11;48.60;30.20
6102;DHT22;3081;50.584;7.032;2023-06-10T13:59:38;49.00;29.90
6102;DHT22;3081;50.584;7.032;2023-06-10T14:02:05;49.20;29.80
6102;DHT22;3081;50.584;7.032;2023-06-10T14:04:34;49.40;29.30
6102;DHT22;3081;50.584;7.032;2023-06-10T14:07:00;49.20;29.50
6102;DHT22;3081;50.584;7.032;2023-06-10T14:09:29;49.20;29.30
6102;DHT22;3081;50.584;7.032;2023-06-10T14:11:55;49.10;29.60
6102;DHT22;3081;50.584;7.032;2023-06-10T14:14:22;48.30;30.20
6102;DHT22;3081;50.584;7.032;2023-06-10T14:16:49;47.80;30.20
6102;DHT22;3081;50.584;7.032;2023-06-10T14:19:16;48.40;30.00
6102;DHT22;3081;50.584;7.032;2023-06-10T14:21:44;49.40;29.10
6102;DHT22;3081;50.584;7.032;2023-06-10T14:24:12;50.30;28.90
6102;DHT22;3081;50.584;7.032;2023-06-10T14:26:39;50.20;29.50
6102;DHT22;3081;50.584;7.032;2023-06-10T14:29:06;50.50;29.50
6102;DHT22;3081;50.584;7.032;2023-06-10T14:31:34;51.00;28.70
6102;DHT22;3081;50.584;7.032;2023-06-10T14:34:01;51.30;28.00
6102;DHT22;3081;50.584;7.032;2023-06-10T14:36:28;51.30;27.90
6102;DHT22;3081;50.584;7.032;2023-06-10T14:38:56;51.40;27.90
6102;DHT22;3081;50.584;7.032;2023-06-10T14:41:23;51.80;27.80
6102;DHT22;3081;50.584;7.032;2023-06-10T14:43:50;52.40;27.40
6102;DHT22;3081;50.584;7.032;2023-06-10T14:46:17;52.80;27.10
6102;DHT22;3081;50.584;7.032;2023-06-10T14:48:46;53.50;27.10
6102;DHT22;3081;50.584;7.032;2023-06-10T14:51:13;53.40;27.30
6102;DHT22;3081;50.584;7.032;2023-06-10T14:53:40;53.20;27.30
6102;DHT22;3081;50.584;7.032;2023-06-10T14:56:08;53.30;26.90
6102;DHT22;3081;50.584;7.032;2023-06-10T14:58:35;53.30;26.80
6102;DHT22;3081;50.584;7.032;2023-06-10T15:01:02;53.40;26.30
6102;DHT22;3081;50.584;7.032;2023-06-10T15:03:29;53.10;27.00
6102;DHT22;3081;50.584;7.032;2023-06-10T15:05:56;53.00;26.60
6102;DHT22;3081;50.584;7.032;2023-06-10T15:08:23;52.70;27.50
6102;DHT22;3081;50.584;7.032;2023-06-10T15:10:50;52.30;26.90
6102;DHT22;3081;50.584;7.032;2023-06-10T15:13:18;52.40;26.80
6102;DHT22;3081;50.584;7.032;2023-06-10T15:15:45;52.90;26.90
6102;DHT22;3081;50.584;7.032;2023-06-10T15:18:12;52.80;27.10
6102;DHT22;3081;50.584;7.032;2023-06-10T15:20:38;52.80;27.00
6102;DHT22;3081;50.584;7.032;2023-06-10T15:23:05;53.10;27.00
6102;DHT22;3081;50.584;7.032;2023-06-10T15:25:33;53.00;26.90
6102;DHT22;3081;50.584;7.032;2023-06-10T15:28:01;53.60;26.40
6102;DHT22;3081;50.584;7.032;2023-06-10T15:30:29;54.40;26.50
6102;DHT22;3081;50.584;7.032;2023-06-10T15:32:56;55.10;25.80
6102;DHT22;3081;50.584;7.032;2023-06-10T15:35:23;55.30;25.90
6102;DHT22;3081;50.584;7.032;2023-06-10T15:37:50;55.20;26.10
6102;DHT22;3081;50.584;7.032;2023-06-10T15:40:17;54.90;26.10
6102;DHT22;3081;50.584;7.032;2023-06-10T15:42:44;54.80;26.30
6102;DHT22;3081;50.584;7.032;2023-06-10T15:45:11;54.20;26.30
6102;DHT22;3081;50.584;7.032;2023-06-10T15:47:39;53.70;26.50
6102;DHT22;3081;50.584;7.032;2023-06-10T15:50:07;53.30;26.90
6102;DHT22;3081;50.584;7.032;2023-06-10T15:52:34;53.70;26.40
6102;DHT22;3081;50.584;7.032;2023-06-10T15:55:02;54.30;26.30
6102;DHT22;3081;50.584;7.032;2023-06-10T15:57:29;54.40;26.10
6102;DHT22;3081;50.584;7.032;2023-06-10T15:59:56;55.10;25.90
6102;DHT22;3081;50.584;7.032;2023-06-10T16:02:22;55.70;25.80
6102;DHT22;3081;50.584;7.032;2023-06-10T16:04:51;55.90;25.60
6102;DHT22;3081;50.584;7.032;2023-06-10T16:07:17;56.00;25.80